Time;durP1;ratioP1;P1;durP2;ratioP2;P2;SDS_P1;SDS_P2;PMS_P1;PMS_P2;Temp;Humidity;BMP_temperature;BMP_pressure;BME280_temperature;BME280_humidity;BME280_pressure;Samples;Min_cycle;Max_cycle;Signal;HPM_P1;HPM_P2
2021/11/04 00:01:17;;;;;;;55.25;34.75;;;7.40;99.90;;;;;;5012022;28;20647;-61
2021/11/04 00:03:43;;;;;;;49.65;31.60;;;7.30;99.90;;;;;;5012198;28;20547;-61
2021/11/04 00:06:10;;;;;;;50.08;31.13;;;7.40;99.90;;;;;;5012032;28;20221;-62
2021/11/04 00:08:37;;;;;;;53.88;34.53;;;7.40;99.90;;;;;;5028722;28;20180;-61
2021/11/04 00:11:04;;;;;;;53.17;31.67;;;7.30;99.90;;;;;;5051589;28;20228;-61
2021/11/04 00:13:31;;;;;;;46.10;29.42;;;7.40;99.90;;;;;;5045473;28;20207;-62
2021/11/04 00:15:58;;;;;;;51.90;32.90;;;7.40;99.90;;;;;;5011696;28;20689;-62
2021/11/04 00:18:25;;;;;;;48.00;30.00;;;7.40;99.90;;;;;;5011940;28;20194;-61
2021/11/04 00:20:52;;;;;;;41.45;29.85;;;7.40;99.90;;;;;;5012220;28;20593;-62
2021/11/04 00:23:19;;;;;;;47.10;29.48;;;7.40;99.90;;;;;;5012097;28;20190;-62
2021/11/04 00:25:46;;;;;;;49.20;29.63;;;7.40;99.90;;;;;;5011317;28;20321;-62
2021/11/04 00:28:13;;;;;;;46.75;29.83;;;7.20;99.90;;;;;;4994435;28;20226;-61
2021/11/04 00:30:40;;;;;;;42.55;28.15;;;7.20;99.90;;;;;;5036384;28;20185;-61
2021/11/04 00:33:07;;;;;;;47.70;30.30;;;7.10;99.90;;;;;;5051664;28;20223;-61
2021/11/04 00:35:34;;;;;;;48.30;31.20;;;7.10;99.90;;;;;;5035879;28;20206;-62
2021/11/04 00:38:02;;;;;;;46.60;30.30;;;7.10;99.90;;;;;;5011689;28;20182;-61
2021/11/04 00:40:29;;;;;;;44.00;29.10;;;7.10;99.90;;;;;;5011317;28;20599;-61
2021/11/04 00:42:56;;;;;;;48.95;29.02;;;7.00;99.90;;;;;;5011976;28;20209;-61
2021/11/04 00:45:23;;;;;;;54.85;32.50;;;7.10;99.90;;;;;;5011408;28;20234;-61
2021/11/04 00:47:52;;;;;;;47.05;31.25;;;7.10;99.90;;;;;;5011469;28;20249;-61
2021/11/04 00:50:24;;;;;;;47.92;30.67;;;7.10;99.90;;;;;;5011283;28;20580;-61
2021/11/04 00:52:51;;;;;;;51.13;33.10;;;7.10;99.90;;;;;;5011572;28;20243;-61
2021/11/04 00:55:18;;;;;;;50.08;31.33;;;7.10;99.90;;;;;;5012150;28;20206;-61
2021/11/04 00:57:46;;;;;;;49.45;31.90;;;7.10;99.90;;;;;;5010952;28;20689;-62
2021/11/04 01:00:14;;;;;;;51.83;32.40;;;7.10;99.90;;;;;;5012041;28;20206;-61
2021/11/04 01:02:41;;;;;;;55.17;34.78;;;7.10;99.90;;;;;;5011273;28;20226;-61
2021/11/04 01:05:08;;;;;;;55.83;32.97;;;7.10;99.90;;;;;;5027618;28;20218;-62
2021/11/04 01:07:35;;;;;;;47.00;33.60;;;7.20;99.90;;;;;;5010746;28;20243;-61
2021/11/04 01:10:03;;;;;;;49.30;34.13;;;7.10;99.90;;;;;;5012400;28;20187;-61
2021/11/04 01:12:30;;;;;;;56.95;33.58;;;7.20;99.90;;;;;;5013007;28;20253;-61
2021/11/04 01:14:57;;;;;;;48.08;31.27;;;7.20;99.90;;;;;;5014097;28;20211;-61
2021/11/04 01:17:24;;;;;;;49.80;32.00;;;7.20;99.90;;;;;;5014804;28;20229;-61
2021/11/04 01:19:51;;;;;;;50.72;32.83;;;7.10;99.90;;;;;;5016079;28;20197;-61
2021/11/04 01:22:20;;;;;;;49.65;30.73;;;7.20;99.90;;;;;;5014919;28;20227;-61
2021/11/04 01:24:46;;;;;;;51.42;31.88;;;7.10;99.90;;;;;;5015670;28;20245;-61
2021/11/04 01:27:13;;;;;;;52.78;31.95;;;7.10;99.90;;;;;;5014319;28;20265;-61
2021/11/04 01:29:40;;;;;;;53.05;31.75;;;7.10;99.90;;;;;;5015859;28;20587;-61
2021/11/04 01:32:07;;;;;;;55.45;31.15;;;7.20;99.90;;;;;;4997215;28;20761;-61
2021/11/04 01:34:35;;;;;;;57.83;34.25;;;7.20;99.90;;;;;;5015012;28;20206;-61
2021/11/04 01:37:02;;;;;;;56.97;32.25;;;7.20;99.90;;;;;;4997328;28;20236;-61
2021/11/04 01:39:28;;;;;;;56.25;32.45;;;7.10;99.90;;;;;;4997505;28;20190;-61
2021/11/04 01:41:55;;;;;;;49.67;33.50;;;7.10;99.90;;;;;;4996860;28;20221;-61
2021/11/04 01:44:22;;;;;;;48.47;31.40;;;7.10;99.90;;;;;;5014769;28;20209;-61
2021/11/04 01:46:50;;;;;;;49.13;33.08;;;7.10;99.90;;;;;;5013936;28;20236;-61
2021/11/04 01:49:17;;;;;;;52.70;31.63;;;7.10;99.90;;;;;;5013448;28;20205;-61
2021/11/04 01:51:44;;;;;;;50.63;33.60;;;7.00;99.90;;;;;;5014118;28;20246;-61
2021/11/04 01:54:12;;;;;;;51.25;30.27;;;7.00;99.90;;;;;;5014687;28;20632;-62
2021/11/04 01:56:41;;;;;;;51.80;30.98;;;7.00;99.90;;;;;;5014108;28;20221;-62
2021/11/04 01:59:08;;;;;;;44.72;30.17;;;6.90;99.90;;;;;;5014610;28;20193;-61
2021/11/04 02:01:36;;;;;;;43.80;28.58;;;6.90;99.90;;;;;;5013987;28;20226;-61
2021/11/04 02:04:30;;;;;;;50.78;31.20;;;7.00;99.90;;;;;;5014431;28;20186;-61
2021/11/04 02:07:13;;;;;;;45.78;28.58;;;7.00;99.90;;;;;;5013744;28;20233;-61
2021/11/04 02:09:56;;;;;;;46.53;28.98;;;7.00;99.90;;;;;;5014361;28;20872;-61
2021/11/04 02:12:32;;;;;;;47.25;28.42;;;7.00;99.90;;;;;;4997903;28;20221;-61
2021/11/04 02:15:00;;;;;;;47.90;29.83;;;7.00;99.90;;;;;;5014360;28;20220;-61
2021/11/04 02:17:30;;;;;;;45.83;28.73;;;6.90;99.90;;;;;;5013497;28;20225;-61
2021/11/04 02:19:59;;;;;;;45.95;27.80;;;6.90;99.90;;;;;;5014109;28;20672;-61
2021/11/04 02:22:55;;;;;;;41.75;28.70;;;6.90;99.90;;;;;;5013604;28;20317;-61
2021/11/04 02:25:28;;;;;;;44.42;27.85;;;6.90;99.90;;;;;;4991126;28;20226;-61
2021/11/04 02:28:02;;;;;;;54.00;30.83;;;6.90;99.90;;;;;;5013740;28;20221;-61
2021/11/04 02:30:31;;;;;;;48.30;31.02;;;6.90;99.90;;;;;;5035456;28;20216;-61
2021/11/04 02:32:59;;;;;;;49.78;28.88;;;6.90;99.90;;;;;;5053701;28;20180;-61
2021/11/04 02:35:27;;;;;;;51.58;31.60;;;6.90;99.90;;;;;;5040436;28;20688;-61
2021/11/04 02:37:55;;;;;;;50.83;31.80;;;7.00;99.90;;;;;;5013751;28;20197;-61
2021/11/04 02:40:23;;;;;;;52.25;33.60;;;6.80;99.90;;;;;;5013867;28;20190;-61
2021/11/04 02:42:52;;;;;;;52.83;32.10;;;6.90;99.90;;;;;;5013514;28;20289;-61
2021/11/04 02:45:21;;;;;;;50.65;30.27;;;6.90;99.90;;;;;;5015565;28;20272;-61
2021/11/04 02:47:49;;;;;;;51.10;29.77;;;6.90;99.90;;;;;;5013869;28;20229;-61
2021/11/04 02:50:17;;;;;;;54.83;32.58;;;6.90;99.90;;;;;;5014195;28;20271;-61
2021/11/04 02:52:44;;;;;;;51.28;32.25;;;6.80;99.90;;;;;;5013488;28;20226;-61
2021/11/04 02:55:11;;;;;;;53.90;32.95;;;6.90;99.90;;;;;;5014130;28;20553;-62
2021/11/04 02:57:46;;;;;;;58.00;31.73;;;6.90;99.90;;;;;;5015361;28;20220;-61
2021/11/04 03:00:15;;;;;;;55.50;33.80;;;6.90;99.90;;;;;;5033394;28;20527;-61
2021/11/04 03:02:42;;;;;;;55.22;34.78;;;6.90;99.90;;;;;;5032591;28;20790;-62
2021/11/04 03:05:09;;;;;;;56.88;33.78;;;6.90;99.90;;;;;;5029320;28;20210;-62
2021/11/04 03:07:36;;;;;;;55.53;32.75;;;6.90;99.90;;;;;;5012456;28;20222;-61
2021/11/04 03:10:04;;;;;;;61.63;33.75;;;6.90;99.90;;;;;;5013302;28;20186;-61
2021/11/04 03:12:31;;;;;;;55.33;32.10;;;6.80;99.90;;;;;;5012524;28;20225;-62
2021/11/04 03:15:01;;;;;;;64.70;37.25;;;6.80;99.90;;;;;;5031323;28;20584;-61
2021/11/04 03:17:28;;;;;;;56.05;33.17;;;6.90;99.90;;;;;;5014570;28;20600;-62
2021/11/04 03:19:56;;;;;;;62.45;33.10;;;6.90;99.90;;;;;;5030818;28;20185;-61
2021/11/04 03:22:23;;;;;;;59.50;32.97;;;6.80;99.90;;;;;;5012564;28;20222;-61
2021/11/04 03:24:50;;;;;;;56.85;32.17;;;6.90;99.90;;;;;;5012893;28;20238;-61
2021/11/04 03:27:18;;;;;;;53.63;29.25;;;6.80;99.90;;;;;;5012075;28;20699;-61
2021/11/04 03:29:45;;;;;;;72.35;31.10;;;6.90;99.90;;;;;;5022345;28;20194;-61
2021/11/04 03:32:22;;;;;;;51.42;29.50;;;6.80;99.90;;;;;;5051971;28;20216;-61
2021/11/04 03:34:50;;;;;;;56.58;31.20;;;6.80;99.90;;;;;;5049754;28;20208;-61
2021/11/04 03:37:21;;;;;;;60.15;30.58;;;6.90;99.90;;;;;;5011923;28;20617;-61
2021/11/04 03:39:49;;;;;;;74.20;30.73;;;6.90;99.90;;;;;;5012673;28;20184;-62
2021/11/04 03:42:16;;;;;;;62.88;32.97;;;6.90;99.90;;;;;;5012153;28;20222;-62
2021/11/04 03:44:44;;;;;;;59.67;31.85;;;6.90;99.90;;;;;;5012199;28;20288;-61
2021/11/04 03:47:12;;;;;;;52.55;28.95;;;6.80;99.90;;;;;;5011020;28;20225;-61
2021/11/04 03:49:40;;;;;;;62.95;33.35;;;6.80;99.90;;;;;;5011685;28;20186;-61
2021/11/04 03:52:07;;;;;;;55.70;31.60;;;6.70;99.90;;;;;;5030168;28;20587;-61
2021/11/04 03:54:34;;;;;;;48.42;28.38;;;6.80;99.90;;;;;;5031492;28;20587;-61
2021/11/04 03:57:01;;;;;;;51.45;27.55;;;6.70;99.90;;;;;;5030637;28;20228;-61
2021/11/04 03:59:28;;;;;;;58.33;30.33;;;6.70;99.90;;;;;;5018448;28;20204;-61
2021/11/04 04:01:55;;;;;;;53.03;28.80;;;6.70;99.90;;;;;;5010908;28;20300;-61
2021/11/04 04:04:22;;;;;;;68.03;31.02;;;6.60;99.90;;;;;;5029119;28;20209;-61
2021/11/04 04:06:54;;;;;;;59.70;31.35;;;6.60;99.90;;;;;;5012940;28;20313;-61
2021/11/04 04:09:23;;;;;;;62.63;32.53;;;6.60;99.90;;;;;;5011667;28;20195;-61
2021/11/04 04:11:52;;;;;;;63.92;32.35;;;6.70;99.90;;;;;;5010827;28;20308;-61
2021/11/04 04:14:19;;;;;;;58.97;31.15;;;6.70;99.90;;;;;;5011352;28;20182;-61
2021/11/04 04:16:47;;;;;;;63.08;33.28;;;6.70;99.90;;;;;;5010574;28;20221;-61
2021/11/04 04:19:14;;;;;;;52.60;28.42;;;6.70;99.90;;;;;;5013254;28;20189;-61
2021/11/04 04:21:41;;;;;;;60.00;30.60;;;6.60;99.90;;;;;;5011684;28;20232;-61
2021/11/04 04:24:08;;;;;;;60.40;29.35;;;6.60;99.90;;;;;;5011917;28;20186;-61
2021/11/04 04:26:35;;;;;;;55.60;29.05;;;6.50;99.90;;;;;;5011155;28;20231;-61
2021/11/04 04:29:02;;;;;;;59.83;28.33;;;6.50;99.90;;;;;;5011351;28;20592;-61
2021/11/04 04:31:29;;;;;;;54.60;28.08;;;6.60;99.90;;;;;;5011448;28;20222;-61
2021/11/04 04:33:56;;;;;;;53.00;27.73;;;6.60;99.90;;;;;;5011716;28;20189;-62
2021/11/04 04:36:23;;;;;;;49.60;28.15;;;6.60;99.90;;;;;;5010633;28;20222;-62
2021/11/04 04:38:50;;;;;;;61.67;29.65;;;6.60;99.90;;;;;;5011165;28;20191;-61
2021/11/04 04:41:16;;;;;;;54.88;30.30;;;6.60;99.90;;;;;;5009361;28;20253;-61
2021/11/04 04:43:43;;;;;;;51.90;27.40;;;6.60;99.90;;;;;;5010937;28;20187;-61
2021/11/04 04:46:10;;;;;;;58.90;29.97;;;6.60;99.90;;;;;;4974028;28;1061353;-61
2021/11/04 04:48:37;;;;;;;59.55;29.23;;;6.50;99.90;;;;;;5011764;28;20461;-61
2021/11/04 04:51:04;;;;;;;59.97;29.98;;;6.50;99.90;;;;;;5015425;28;20226;-61
2021/11/04 04:53:31;;;;;;;54.08;29.25;;;6.50;99.90;;;;;;5016127;28;20593;-61
2021/11/04 04:55:58;;;;;;;52.05;28.13;;;6.50;99.90;;;;;;5015082;28;20222;-62
2021/11/04 04:58:25;;;;;;;61.05;29.50;;;6.60;99.90;;;;;;5015691;28;20244;-61
2021/11/04 05:00:52;;;;;;;56.58;30.35;;;6.50;99.90;;;;;;5015422;28;20214;-61
2021/11/04 05:03:19;;;;;;;60.10;30.15;;;6.50;99.90;;;;;;5015570;28;20533;-62
2021/11/04 05:05:46;;;;;;;58.65;30.52;;;6.50;99.90;;;;;;5015164;28;20225;-61
2021/11/04 05:08:13;;;;;;;52.63;27.35;;;6.60;99.90;;;;;;4997704;28;20213;-61
2021/11/04 05:10:40;;;;;;;50.33;29.90;;;6.50;99.90;;;;;;5015717;28;20178;-61
2021/11/04 05:13:06;;;;;;;53.47;28.60;;;6.50;99.90;;;;;;5035247;28;20177;-61
2021/11/04 05:15:33;;;;;;;48.05;25.17;;;6.50;99.90;;;;;;5023084;28;20573;-61
2021/11/04 05:18:00;;;;;;;55.20;28.65;;;6.60;99.90;;;;;;5015190;28;20182;-61
2021/11/04 05:20:29;;;;;;;58.13;29.05;;;6.50;99.90;;;;;;5015025;28;20190;-62
2021/11/04 05:22:56;;;;;;;59.45;29.70;;;6.50;99.90;;;;;;5015774;28;20186;-61
2021/11/04 05:25:23;;;;;;;51.90;28.90;;;6.60;99.90;;;;;;4997423;28;20587;-61
2021/11/04 05:27:50;;;;;;;56.13;28.80;;;6.70;99.90;;;;;;5014161;28;20222;-61
2021/11/04 05:30:18;;;;;;;55.92;28.02;;;6.60;99.90;;;;;;5033625;28;20188;-61
2021/11/04 05:32:46;;;;;;;48.05;24.23;;;6.60;99.90;;;;;;5054302;28;20311;-61
2021/11/04 05:35:15;;;;;;;49.63;25.33;;;6.70;99.90;;;;;;5046125;28;20230;-61
2021/11/04 05:37:42;;;;;;;45.70;25.10;;;6.70;99.90;;;;;;5014081;28;20221;-61
2021/11/04 05:40:11;;;;;;;42.95;24.23;;;6.70;99.90;;;;;;5014883;28;20197;-61
2021/11/04 05:42:39;;;;;;;37.80;25.48;;;6.70;99.90;;;;;;5014610;28;20225;-61
2021/11/04 05:45:06;;;;;;;44.10;23.88;;;6.70;99.90;;;;;;5014871;28;20221;-61
2021/11/04 05:47:33;;;;;;;42.10;22.90;;;6.80;99.90;;;;;;5014184;28;20229;-61
2021/11/04 05:50:00;;;;;;;41.85;23.88;;;6.80;99.90;;;;;;5014536;28;20249;-61
2021/11/04 05:52:27;;;;;;;39.75;22.17;;;6.80;99.90;;;;;;5015422;28;20315;-61
2021/11/04 05:54:56;;;;;;;40.03;23.65;;;6.90;99.90;;;;;;5015983;28;20206;-61
2021/11/04 05:57:24;;;;;;;47.50;25.08;;;6.80;99.90;;;;;;4996888;28;20229;-62
2021/11/04 05:59:51;;;;;;;43.75;23.10;;;6.70;99.90;;;;;;5014846;28;20189;-61
2021/11/04 06:02:18;;;;;;;42.83;25.05;;;6.70;99.90;;;;;;5014107;28;20228;-61
2021/11/04 06:04:45;;;;;;;48.47;25.42;;;6.70;99.90;;;;;;5014688;28;20672;-61
2021/11/04 06:07:15;;;;;;;41.33;22.40;;;6.70;99.90;;;;;;5013831;28;20316;-61
2021/11/04 06:09:42;;;;;;;44.45;23.63;;;6.70;99.90;;;;;;5015049;28;20179;-61
2021/11/04 06:12:10;;;;;;;44.08;23.75;;;6.70;99.90;;;;;;5013883;28;20600;-61
2021/11/04 06:14:37;;;;;;;45.90;25.52;;;6.60;99.90;;;;;;5014292;28;20204;-61
2021/11/04 06:17:04;;;;;;;49.85;25.92;;;6.60;99.90;;;;;;5011954;28;20237;-61
2021/11/04 06:19:31;;;;;;;49.58;23.80;;;6.60;99.90;;;;;;5014313;28;20182;-61
2021/11/04 06:21:58;;;;;;;41.20;21.50;;;6.60;99.90;;;;;;5013631;28;20225;-61
2021/11/04 06:24:25;;;;;;;42.95;24.25;;;6.60;99.90;;;;;;5014189;28;20579;-62
2021/11/04 06:26:51;;;;;;;50.35;23.83;;;6.60;99.90;;;;;;5013486;28;20630;-62
2021/11/04 06:29:18;;;;;;;38.65;21.98;;;6.60;99.90;;;;;;5016725;28;20557;-61
2021/11/04 06:31:45;;;;;;;44.67;24.00;;;6.60;99.90;;;;;;5053170;28;20228;-61
2021/11/04 06:34:12;;;;;;;50.20;23.70;;;6.60;99.90;;;;;;5053592;28;20191;-61
2021/11/04 06:36:39;;;;;;;53.17;26.70;;;6.60;99.90;;;;;;5020493;28;20229;-61
2021/11/04 06:39:06;;;;;;;57.25;27.73;;;6.60;99.90;;;;;;5013764;28;20193;-61
2021/11/04 06:41:33;;;;;;;52.63;27.33;;;6.60;99.90;;;;;;4996031;28;20245;-61
2021/11/04 06:44:00;;;;;;;53.60;25.33;;;6.70;99.90;;;;;;5013842;28;20210;-61
2021/11/04 06:46:31;;;;;;;51.85;25.27;;;6.70;99.90;;;;;;5012762;28;20229;-61
2021/11/04 06:49:09;;;;;;;56.92;26.33;;;6.70;99.90;;;;;;5013629;28;20309;-61
2021/11/04 06:51:41;;;;;;;47.65;27.15;;;6.70;99.90;;;;;;5006929;28;20696;-61
2021/11/04 06:54:12;;;;;;;46.22;25.55;;;6.70;99.90;;;;;;5013438;28;20166;-61
2021/11/04 06:56:42;;;;;;;48.33;28.02;;;6.70;99.90;;;;;;5030787;28;20702;-61
2021/11/04 06:59:18;;;;;;;54.25;28.00;;;6.60;99.90;;;;;;5033152;28;20655;-61
2021/11/04 07:01:59;;;;;;;57.75;29.23;;;6.70;99.90;;;;;;5012911;28;20711;-61
2021/11/04 07:04:36;;;;;;;59.33;29.95;;;6.80;99.90;;;;;;5038610;28;20216;-61
2021/11/04 07:07:13;;;;;;;61.60;29.83;;;6.80;99.90;;;;;;5030447;28;20587;-61
2021/11/04 07:09:42;;;;;;;56.95;27.33;;;6.80;99.90;;;;;;5032942;28;20364;-61
2021/11/04 07:12:11;;;;;;;57.65;29.00;;;6.90;99.90;;;;;;5031804;28;20240;-61
2021/11/04 07:14:41;;;;;;;53.60;26.63;;;6.90;99.90;;;;;;5025341;28;20224;-61
2021/11/04 07:17:11;;;;;;;52.05;28.58;;;6.90;99.90;;;;;;5012480;28;20712;-61
2021/11/04 07:19:39;;;;;;;52.00;28.33;;;7.00;99.90;;;;;;5027827;28;20189;-61
2021/11/04 07:22:19;;;;;;;65.40;30.50;;;7.00;99.90;;;;;;5014471;28;20309;-61
2021/11/04 07:24:52;;;;;;;55.90;28.45;;;7.10;99.90;;;;;;5037133;28;20318;-61
2021/11/04 07:27:51;;;;;;;55.75;27.95;;;7.10;99.90;;;;;;5039903;28;20217;-64
2021/11/04 07:30:19;;;;;;;57.35;28.02;;;7.10;99.90;;;;;;5022649;28;20186;-61
2021/11/04 07:32:54;;;;;;;61.45;31.00;;;7.20;99.90;;;;;;5036218;28;20592;-61
2021/11/04 07:35:25;;;;;;;57.75;27.90;;;7.20;99.90;;;;;;5038977;28;20205;-61
2021/11/04 07:37:53;;;;;;;52.13;27.13;;;7.20;99.90;;;;;;5012693;28;20211;-61
2021/11/04 07:40:22;;;;;;;58.78;30.20;;;7.20;99.90;;;;;;5041223;28;20190;-61
2021/11/04 07:42:50;;;;;;;53.03;27.65;;;7.30;99.90;;;;;;5048012;28;20218;-60
2021/11/04 07:45:18;;;;;;;50.80;28.45;;;7.40;99.90;;;;;;5012778;28;20288;-61
2021/11/04 07:47:46;;;;;;;58.28;31.70;;;7.40;99.90;;;;;;5033872;28;20709;-61
2021/11/04 07:50:18;;;;;;;50.97;27.63;;;7.40;99.90;;;;;;5043657;28;20522;-61
2021/11/04 07:52:45;;;;;;;61.90;28.38;;;7.50;99.90;;;;;;5011998;28;20218;-61
2021/11/04 07:55:13;;;;;;;56.20;28.40;;;7.60;99.90;;;;;;5012461;28;20562;-61
2021/11/04 07:57:40;;;;;;;53.47;30.08;;;7.50;99.90;;;;;;4997460;28;20245;-61
2021/11/04 08:00:10;;;;;;;53.78;28.30;;;7.60;99.90;;;;;;5039240;28;20204;-61
2021/11/04 08:02:41;;;;;;;50.60;27.25;;;7.50;99.90;;;;;;5023635;28;20662;-61
2021/11/04 08:05:11;;;;;;;51.45;29.13;;;7.60;99.90;;;;;;5044411;28;20250;-61
2021/11/04 08:07:39;;;;;;;47.03;26.20;;;7.60;99.90;;;;;;4994056;28;20735;-61
2021/11/04 08:10:09;;;;;;;50.30;26.27;;;7.60;99.90;;;;;;5048495;28;20212;-61
2021/11/04 08:12:36;;;;;;;56.30;26.27;;;7.60;99.90;;;;;;5051396;28;20308;-61
2021/11/04 08:15:06;;;;;;;50.45;27.30;;;7.60;99.90;;;;;;5032210;28;20224;-61
2021/11/04 08:17:33;;;;;;;50.50;27.27;;;7.70;99.90;;;;;;5050835;28;20286;-61
2021/11/04 08:20:00;;;;;;;46.47;26.38;;;7.70;99.90;;;;;;5049923;28;20217;-61
2021/11/04 08:22:27;;;;;;;51.95;27.90;;;7.70;99.90;;;;;;5039541;28;20320;-61
2021/11/04 08:24:54;;;;;;;46.77;25.77;;;7.70;99.90;;;;;;5051689;28;20455;-61
2021/11/04 08:27:21;;;;;;;44.80;26.60;;;7.80;99.90;;;;;;5037654;28;20479;-61
2021/11/04 08:29:48;;;;;;;45.10;26.63;;;7.80;99.90;;;;;;5019843;28;20980;-61
2021/11/04 08:32:15;;;;;;;48.35;25.75;;;7.80;99.90;;;;;;5037060;28;20215;-61
2021/11/04 08:34:42;;;;;;;42.25;26.92;;;7.80;99.90;;;;;;5031036;28;20207;-61
2021/11/04 08:37:10;;;;;;;44.65;26.63;;;7.90;99.90;;;;;;5011386;28;20224;-61
2021/11/04 08:39:39;;;;;;;51.58;27.55;;;7.90;99.90;;;;;;5029815;28;20311;-61
2021/11/04 08:42:07;;;;;;;44.88;27.75;;;7.90;99.90;;;;;;5030226;28;20657;-61
2021/11/04 08:44:35;;;;;;;44.78;26.70;;;8.00;99.90;;;;;;5022286;28;20306;-61
2021/11/04 08:47:03;;;;;;;42.17;26.07;;;8.00;99.90;;;;;;5011158;28;20236;-61
2021/11/04 08:49:30;;;;;;;48.47;26.92;;;8.10;99.90;;;;;;5011502;28;20480;-61
2021/11/04 08:51:57;;;;;;;50.03;27.10;;;8.20;99.90;;;;;;5029073;28;20220;-61
2021/11/04 08:54:25;;;;;;;51.63;27.38;;;8.20;99.90;;;;;;5031472;28;20446;-62
2021/11/04 08:56:52;;;;;;;45.70;25.60;;;8.40;99.90;;;;;;5030666;28;20240;-61
2021/11/04 08:59:20;;;;;;;43.57;25.83;;;8.50;99.90;;;;;;5018176;28;20501;-61
2021/11/04 09:01:48;;;;;;;40.57;27.00;;;8.50;99.90;;;;;;5029312;28;20474;-61
2021/11/04 09:04:18;;;;;;;43.93;25.90;;;8.50;99.90;;;;;;5031590;28;20464;-61
2021/11/04 09:06:45;;;;;;;44.97;25.37;;;8.50;99.90;;;;;;5014821;28;20838;-61
2021/11/04 09:09:12;;;;;;;42.87;24.83;;;8.50;99.90;;;;;;5012000;28;20837;-61
2021/11/04 09:11:38;;;;;;;37.90;23.20;;;8.60;99.90;;;;;;5011329;28;20457;-61
2021/11/04 09:14:11;;;;;;;36.77;22.10;;;8.60;99.90;;;;;;5017308;28;20534;-61
2021/11/04 09:16:38;;;;;;;43.50;25.70;;;8.60;99.90;;;;;;5031645;28;20464;-61
2021/11/04 09:19:06;;;;;;;37.20;23.90;;;8.40;99.90;;;;;;5031685;28;20526;-61
2021/11/04 09:21:33;;;;;;;49.70;25.97;;;8.40;99.90;;;;;;5015574;28;20995;-61
2021/11/04 09:24:00;;;;;;;40.85;23.77;;;8.30;99.90;;;;;;5011617;28;20425;-61
2021/11/04 09:26:27;;;;;;;41.07;24.80;;;8.20;99.90;;;;;;5010658;28;20252;-61
2021/11/04 09:28:54;;;;;;;42.03;25.10;;;8.30;99.90;;;;;;5014870;28;20463;-61
2021/11/04 09:31:21;;;;;;;44.80;26.30;;;8.30;99.90;;;;;;5013737;28;20556;-61
2021/11/04 09:33:48;;;;;;;36.10;22.20;;;8.30;99.90;;;;;;5011368;28;20527;-61
2021/11/04 09:36:15;;;;;;;52.07;26.97;;;8.30;99.90;;;;;;5012977;28;20976;-61
2021/11/04 09:38:41;;;;;;;41.73;25.83;;;8.30;99.90;;;;;;5014912;28;20425;-61
2021/11/04 09:41:11;;;;;;;37.23;22.87;;;8.40;99.90;;;;;;5036096;28;20461;-61
2021/11/04 09:43:39;;;;;;;41.93;22.73;;;8.40;99.90;;;;;;5023450;28;20460;-61
2021/11/04 09:46:06;;;;;;;38.43;23.17;;;8.50;99.90;;;;;;4996633;28;20475;-61
2021/11/04 09:48:37;;;;;;;41.13;23.53;;;8.50;99.90;;;;;;4997292;28;21001;-61
2021/11/04 09:51:04;;;;;;;40.47;21.97;;;8.50;99.90;;;;;;5014515;28;20479;-61
2021/11/04 09:53:31;;;;;;;39.10;24.40;;;8.60;99.90;;;;;;5014751;28;20801;-61
2021/11/04 09:55:59;;;;;;;45.90;24.40;;;8.70;99.90;;;;;;5014175;28;20800;-61
2021/11/04 09:58:26;;;;;;;39.50;23.20;;;8.60;99.90;;;;;;5014404;28;20449;-61
2021/11/04 10:00:53;;;;;;;36.10;23.07;;;8.60;99.90;;;;;;5031470;28;20455;-62
2021/11/04 10:03:21;;;;;;;41.60;24.03;;;8.70;99.90;;;;;;5034223;28;20430;-61
2021/11/04 10:05:52;;;;;;;42.30;24.47;;;8.90;99.90;;;;;;5024753;28;20564;-61
2021/11/04 10:08:32;;;;;;;33.73;22.77;;;9.00;99.90;;;;;;5014237;28;20427;-61
2021/11/04 10:11:11;;;;;;;31.20;21.90;;;9.20;99.90;;;;;;5013954;28;20540;-61
2021/11/04 10:13:39;;;;;;;37.00;23.77;;;9.30;99.90;;;;;;5016388;28;20519;-61
2021/11/04 10:16:07;;;;;;;31.13;20.73;;;9.30;99.90;;;;;;5025604;28;20527;-61
2021/11/04 10:18:43;;;;;;;29.67;21.00;;;9.40;99.90;;;;;;5014356;28;20433;-61
2021/11/04 10:21:38;;;;;;;39.47;24.00;;;9.30;99.90;;;;;;5013692;28;20467;-61
2021/11/04 10:24:08;;;;;;;34.67;21.87;;;9.40;99.90;;;;;;5014067;28;20431;-61
2021/11/04 10:26:37;;;;;;;35.60;24.93;;;9.40;99.90;;;;;;5013400;28;20496;-61
2021/11/04 10:29:07;;;;;;;33.17;21.53;;;9.50;99.90;;;;;;5014129;28;20456;-61
2021/11/04 10:31:43;;;;;;;35.17;22.03;;;9.60;99.90;;;;;;5006706;28;20467;-61
2021/11/04 10:34:27;;;;;;;30.63;20.90;;;9.70;99.90;;;;;;5015387;28;20441;-61
2021/11/04 10:37:07;;;;;;;32.90;24.57;;;9.70;99.90;;;;;;5026515;28;20460;-61
2021/11/04 10:39:40;;;;;;;31.43;22.20;;;9.70;99.90;;;;;;5014080;28;20798;-61
2021/11/04 10:42:07;;;;;;;37.40;22.67;;;9.90;99.90;;;;;;5013699;28;20875;-61
2021/11/04 10:44:35;;;;;;;33.07;21.57;;;9.80;99.90;;;;;;5014157;28;21125;-61
2021/11/04 10:47:02;;;;;;;33.33;19.90;;;9.90;99.90;;;;;;5012193;28;20553;-61
2021/11/04 10:49:49;;;;;;;32.23;20.20;;;9.80;99.90;;;;;;4996364;28;20457;-61
2021/11/04 10:52:23;;;;;;;31.63;20.83;;;9.60;99.90;;;;;;5013034;28;20461;-61
2021/11/04 10:54:51;;;;;;;32.90;21.30;;;9.60;99.90;;;;;;4995968;28;20556;-61
2021/11/04 10:57:41;;;;;;;31.93;21.60;;;9.50;99.90;;;;;;4995676;28;20982;-61
2021/11/04 11:00:22;;;;;;;34.77;22.80;;;9.50;99.90;;;;;;5030794;28;20465;-61
2021/11/04 11:03:01;;;;;;;31.20;21.33;;;9.50;99.90;;;;;;5052463;28;20476;-61
2021/11/04 11:05:29;;;;;;;33.43;23.30;;;9.50;99.90;;;;;;5040260;28;20505;-61
2021/11/04 11:07:57;;;;;;;29.13;22.40;;;9.60;99.90;;;;;;5029332;28;20981;-61
2021/11/04 11:10:24;;;;;;;32.63;22.27;;;9.70;99.90;;;;;;5033069;28;20744;-61
2021/11/04 11:12:51;;;;;;;33.93;24.50;;;9.80;99.90;;;;;;5032815;28;20511;-61
2021/11/04 11:15:18;;;;;;;31.50;22.50;;;10.00;99.90;;;;;;5038983;28;20545;-61
2021/11/04 11:17:49;;;;;;;35.67;21.10;;;10.20;99.90;;;;;;5032229;28;20461;-61
2021/11/04 11:20:17;;;;;;;31.00;22.00;;;10.40;99.90;;;;;;5028272;28;20441;-57
2021/11/04 11:22:44;;;;;;;26.87;20.27;;;10.60;99.90;;;;;;5012607;28;20474;-57
2021/11/04 11:25:11;;;;;;;27.67;20.47;;;10.60;99.90;;;;;;5013100;28;20441;-58
2021/11/04 11:27:39;;;;;;;29.40;18.70;;;10.70;99.90;;;;;;5022319;28;20502;-58
2021/11/04 11:30:13;;;;;;;26.30;19.57;;;10.70;99.90;;;;;;5034764;28;20988;-57
2021/11/04 11:32:41;;;;;;;28.03;20.10;;;10.70;99.90;;;;;;5052227;28;20977;-57
2021/11/04 11:35:13;;;;;;;22.17;18.13;;;10.70;99.90;;;;;;5011367;28;20466;-58
2021/11/04 11:37:56;;;;;;;21.33;17.20;;;10.50;99.90;;;;;;5012078;28;20469;-57
2021/11/04 11:40:25;;;;;;;21.30;16.07;;;10.40;99.90;;;;;;5012936;28;20429;-58
2021/11/04 11:43:03;;;;;;;20.57;16.30;;;10.30;99.90;;;;;;5012750;28;20449;-57
2021/11/04 11:45:35;;;;;;;20.40;15.80;;;10.30;99.90;;;;;;5000636;28;20480;-58
2021/11/04 11:48:21;;;;;;;25.67;17.03;;;10.20;99.90;;;;;;5052109;28;20796;-57
2021/11/04 11:50:54;;;;;;;25.33;19.00;;;10.30;99.90;;;;;;5002194;28;20471;-57
2021/11/04 11:53:37;;;;;;;19.40;16.23;;;10.60;99.90;;;;;;5014857;28;20493;-57
2021/11/04 11:56:07;;;;;;;18.63;14.63;;;10.80;99.90;;;;;;5050594;28;20981;-57
2021/11/04 11:58:47;;;;;;;17.37;13.37;;;10.90;99.90;;;;;;5052075;28;20430;-60
2021/11/04 12:01:19;;;;;;;16.77;14.37;;;11.00;99.90;;;;;;5034268;28;20448;-61
2021/11/04 12:03:47;;;;;;;15.27;12.60;;;10.90;99.90;;;;;;5032262;28;20446;-60
2021/11/04 12:06:16;;;;;;;16.27;13.70;;;11.00;99.90;;;;;;5010243;28;20463;-61
2021/11/04 12:09:00;;;;;;;16.20;13.50;;;11.10;99.90;;;;;;5012333;28;20507;-61
2021/11/04 12:11:37;;;;;;;16.00;13.80;;;11.10;99.90;;;;;;5011794;28;20471;-61
2021/11/04 12:14:19;;;;;;;15.00;11.50;;;11.10;99.90;;;;;;5012807;28;20440;-60
2021/11/04 12:19:48;;;;;;;14.67;12.87;;;10.90;99.90;;;;;;5012381;28;20421;-61
2021/11/04 12:22:40;;;;;;;15.83;12.13;;;10.80;99.90;;;;;;5011790;28;20464;-60
2021/11/04 12:25:13;;;;;;;10.77;9.40;;;10.70;99.90;;;;;;5012376;28;20803;-61
2021/11/04 12:27:44;;;;;;;12.53;9.83;;;10.60;99.90;;;;;;4994080;28;20448;-60
2021/11/04 12:30:20;;;;;;;14.60;11.80;;;10.60;99.90;;;;;;4997586;28;20469;-61
2021/11/04 12:33:02;;;;;;;21.50;17.10;;;10.60;99.90;;;;;;5016302;28;20499;-61
2021/11/04 12:35:47;;;;;;;20.00;13.60;;;10.60;99.90;;;;;;5033810;28;20466;-61
2021/11/04 12:38:21;;;;;;;19.90;13.27;;;10.60;99.90;;;;;;5043906;28;20431;-60
2021/11/04 12:41:05;;;;;;;20.33;14.43;;;10.40;99.90;;;;;;5050806;28;20473;-61
2021/11/04 12:43:35;;;;;;;19.50;14.87;;;10.30;99.90;;;;;;5052263;28;20419;-61
2021/11/04 12:46:18;;;;;;;15.63;13.23;;;10.40;99.90;;;;;;5023573;28;20468;-61
2021/11/04 12:48:59;;;;;;;21.50;15.67;;;10.50;99.90;;;;;;5012037;28;20903;-61
2021/11/04 12:51:41;;;;;;;20.53;15.83;;;10.50;99.90;;;;;;4999511;28;20990;-61